sensor_id;sensor_type;location;lat;lon;timestamp;pressure;altitude;pressure_sealevel;temperature;humidity
45074;BME280;31570;51.688;5.860;2023-03-19T00:00:36;100970.09;;;20.73;45.99
45074;BME280;31570;51.688;5.860;2023-03-19T00:03:02;100964.19;;;20.77;45.81
45074;BME280;31570;51.688;5.860;2023-03-19T00:05:29;100965.81;;;20.70;46.08
45074;BME280;31570;51.688;5.860;2023-03-19T00:07:55;100964.78;;;20.71;46.13
45074;BME280;31570;51.688;5.860;2023-03-19T00:10:22;100966.91;;;20.77;45.91
45074;BME280;31570;51.688;5.860;2023-03-19T00:12:48;100966.91;;;20.77;45.80
45074;BME280;31570;51.688;5.860;2023-03-19T00:15:15;100965.19;;;20.76;45.79
45074;BME280;31570;51.688;5.860;2023-03-19T00:17:42;100977.78;;;20.77;45.73
45074;BME280;31570;51.688;5.860;2023-03-19T00:20:10;100964.66;;;20.73;45.70
45074;BME280;31570;51.688;5.860;2023-03-19T00:22:38;100968.91;;;20.75;45.79
45074;BME280;31570;51.688;5.860;2023-03-19T00:25:06;100974.03;;;20.78;45.72
45074;BME280;31570;51.688;5.860;2023-03-19T00:27:34;100965.44;;;20.83;45.77
45074;BME280;31570;51.688;5.860;2023-03-19T00:30:01;100961.47;;;20.77;45.89
45074;BME280;31570;51.688;5.860;2023-03-19T00:32:28;100960.69;;;20.67;46.04
45074;BME280;31570;51.688;5.860;2023-03-19T00:34:55;100956.03;;;20.77;45.87
45074;BME280;31570;51.688;5.860;2023-03-19T00:37:22;100961.47;;;20.77;45.78
45074;BME280;31570;51.688;5.860;2023-03-19T00:39:48;100960.75;;;20.75;45.61
45074;BME280;31570;51.688;5.860;2023-03-19T00:42:15;100960.44;;;20.78;45.76
45074;BME280;31570;51.688;5.860;2023-03-19T00:44:42;100965.19;;;20.76;45.87
45074;BME280;31570;51.688;5.860;2023-03-19T00:47:08;100962.31;;;20.78;45.77
45074;BME280;31570;51.688;5.860;2023-03-19T00:49:35;100968.91;;;20.75;45.92
45074;BME280;31570;51.688;5.860;2023-03-19T00:52:02;100972.09;;;20.70;45.75
45074;BME280;31570;51.688;5.860;2023-03-19T00:54:28;100970.63;;;20.76;45.60
45074;BME280;31570;51.688;5.860;2023-03-19T00:56:57;100975.34;;;20.74;45.86
45074;BME280;31570;51.688;5.860;2023-03-19T00:59:24;100979.22;;;20.71;45.76
45074;BME280;31570;51.688;5.860;2023-03-19T01:01:51;100981.25;;;20.69;45.90
45074;BME280;31570;51.688;5.860;2023-03-19T01:04:18;100974.50;;;20.74;46.01
45074;BME280;31570;51.688;5.860;2023-03-19T01:06:44;100980.38;;;20.69;45.82
45074;BME280;31570;51.688;5.860;2023-03-19T01:09:11;100975.41;;;20.64;46.05
45074;BME280;31570;51.688;5.860;2023-03-19T01:11:38;100968.81;;;20.67;45.92
45074;BME280;31570;51.688;5.860;2023-03-19T01:14:04;100974.38;;;20.65;46.02
45074;BME280;31570;51.688;5.860;2023-03-19T01:16:31;100979.69;;;20.67;46.01
45074;BME280;31570;51.688;5.860;2023-03-19T01:19:03;100980.53;;;20.67;45.82
45074;BME280;31570;51.688;5.860;2023-03-19T01:21:29;100973.84;;;20.62;45.92
45074;BME280;31570;51.688;5.860;2023-03-19T01:23:57;100965.69;;;20.62;46.01
45074;BME280;31570;51.688;5.860;2023-03-19T01:26:25;100970.53;;;20.68;45.89
45074;BME280;31570;51.688;5.860;2023-03-19T01:28:57;100960.44;;;20.78;45.71
45074;BME280;31570;51.688;5.860;2023-03-19T01:31:24;100965.81;;;20.70;45.86
45074;BME280;31570;51.688;5.860;2023-03-19T01:34:00;100959.78;;;20.76;45.65
45074;BME280;31570;51.688;5.860;2023-03-19T01:36:40;100960.38;;;20.70;45.76
45074;BME280;31570;51.688;5.860;2023-03-19T01:39:06;100963.38;;;20.67;45.64
45074;BME280;31570;51.688;5.860;2023-03-19T01:41:34;100963.28;;;20.59;46.07
45074;BME280;31570;51.688;5.860;2023-03-19T01:44:32;100963.53;;;20.65;45.81
45074;BME280;31570;51.688;5.860;2023-03-19T01:50:26;100938.66;;;20.70;45.89
45074;BME280;31570;51.688;5.860;2023-03-19T01:53:15;100952.81;;;20.64;45.98
45074;BME280;31570;51.688;5.860;2023-03-19T01:55:56;100948.72;;;20.60;45.83
45074;BME280;31570;51.688;5.860;2023-03-19T01:58:34;100954.94;;;20.70;45.74
45074;BME280;31570;51.688;5.860;2023-03-19T02:01:27;100951.00;;;20.55;46.09
45074;BME280;31570;51.688;5.860;2023-03-19T02:03:55;100964.72;;;20.63;45.85
45074;BME280;31570;51.688;5.860;2023-03-19T02:06:26;100957.97;;;20.67;45.76
45074;BME280;31570;51.688;5.860;2023-03-19T02:08:56;100960.38;;;20.70;45.81
45074;BME280;31570;51.688;5.860;2023-03-19T02:11:24;100964.72;;;20.63;45.81
45074;BME280;31570;51.688;5.860;2023-03-19T02:13:51;100964.47;;;20.56;46.56
45074;BME280;31570;51.688;5.860;2023-03-19T02:16:18;100960.69;;;20.67;45.65
45074;BME280;31570;51.688;5.860;2023-03-19T02:18:46;100964.06;;;20.69;45.85
45074;BME280;31570;51.688;5.860;2023-03-19T02:21:17;100957.53;;;20.62;45.86
45074;BME280;31570;51.688;5.860;2023-03-19T02:26:41;100959.88;;;20.57;45.81
45074;BME280;31570;51.688;5.860;2023-03-19T02:29:08;100958.47;;;20.53;46.02
45074;BME280;31570;51.688;5.860;2023-03-19T02:31:36;100965.59;;;20.54;45.96
45074;BME280;31570;51.688;5.860;2023-03-19T02:34:06;100962.84;;;20.63;45.93
45074;BME280;31570;51.688;5.860;2023-03-19T02:36:41;100961.88;;;20.55;45.90
45074;BME280;31570;51.688;5.860;2023-03-19T02:39:22;100950.97;;;20.64;45.73
45074;BME280;31570;51.688;5.860;2023-03-19T02:41:51;100963.03;;;20.52;45.83
45074;BME280;31570;51.688;5.860;2023-03-19T02:44:20;100959.03;;;20.56;45.90
45074;BME280;31570;51.688;5.860;2023-03-19T02:46:49;100961.59;;;20.48;46.22
45074;BME280;31570;51.688;5.860;2023-03-19T02:49:16;100952.41;;;20.59;45.83
45074;BME280;31570;51.688;5.860;2023-03-19T02:51:42;100961.88;;;20.55;45.84
45074;BME280;31570;51.688;5.860;2023-03-19T02:54:09;100956.75;;;20.52;46.23
45074;BME280;31570;51.688;5.860;2023-03-19T02:56:36;100960.47;;;20.51;46.12
45074;BME280;31570;51.688;5.860;2023-03-19T02:59:03;100962.28;;;20.60;45.79
45074;BME280;31570;51.688;5.860;2023-03-19T03:01:30;100975.63;;;20.53;45.92
45074;BME280;31570;51.688;5.860;2023-03-19T03:03:57;100978.97;;;20.65;45.55
45074;BME280;31570;51.688;5.860;2023-03-19T03:06:23;100973.75;;;20.54;45.87
45074;BME280;31570;51.688;5.860;2023-03-19T03:08:50;100976.19;;;20.47;46.12
45074;BME280;31570;51.688;5.860;2023-03-19T03:11:17;100959.88;;;20.57;45.84
45074;BME280;31570;51.688;5.860;2023-03-19T03:13:44;100975.75;;;20.52;45.98
45074;BME280;31570;51.688;5.860;2023-03-19T03:16:10;100971.03;;;20.54;46.01
45074;BME280;31570;51.688;5.860;2023-03-19T03:18:37;100974.31;;;20.47;46.22
45074;BME280;31570;51.688;5.860;2023-03-19T03:21:04;100980.47;;;20.49;46.07
45074;BME280;31570;51.688;5.860;2023-03-19T03:23:31;100982.75;;;20.44;46.03
45074;BME280;31570;51.688;5.860;2023-03-19T03:25:58;100985.03;;;20.49;46.03
45074;BME280;31570;51.688;5.860;2023-03-19T03:28:25;100987.03;;;20.57;45.90
45074;BME280;31570;51.688;5.860;2023-03-19T03:30:57;100984.16;;;20.48;46.08
45074;BME280;31570;51.688;5.860;2023-03-19T03:33:24;100985.88;;;20.49;46.04
45074;BME280;31570;51.688;5.860;2023-03-19T03:35:50;100986.47;;;20.53;45.79
45074;BME280;31570;51.688;5.860;2023-03-19T03:38:17;100981.59;;;20.57;45.90
45074;BME280;31570;51.688;5.860;2023-03-19T03:40:44;100983.91;;;20.52;45.81
45074;BME280;31570;51.688;5.860;2023-03-19T03:43:11;100978.41;;;20.61;45.82
45074;BME280;31570;51.688;5.860;2023-03-19T03:45:38;100983.31;;;20.58;45.91
45074;BME280;31570;51.688;5.860;2023-03-19T03:48:05;100989.88;;;20.45;45.97
45074;BME280;31570;51.688;5.860;2023-03-19T03:50:32;100982.47;;;20.47;45.98
45074;BME280;31570;51.688;5.860;2023-03-19T03:53:05;100985.47;;;20.54;45.88
45074;BME280;31570;51.688;5.860;2023-03-19T03:55:31;100983.31;;;20.48;45.99
45074;BME280;31570;51.688;5.860;2023-03-19T03:57:58;100982.38;;;20.39;46.11
45074;BME280;31570;51.688;5.860;2023-03-19T04:00:25;100988.66;;;20.40;46.12
45074;BME280;31570;51.688;5.860;2023-03-19T04:02:52;100986.22;;;20.37;46.20
45074;BME280;31570;51.688;5.860;2023-03-19T04:05:19;100993.31;;;20.47;46.16
45074;BME280;31570;51.688;5.860;2023-03-19T04:07:45;100994.03;;;20.49;45.87
45074;BME280;31570;51.688;5.860;2023-03-19T04:10:12;101002.78;;;20.43;46.03
45074;BME280;31570;51.688;5.860;2023-03-19T04:12:39;100995.50;;;20.34;46.05
45074;BME280;31570;51.688;5.860;2023-03-19T04:15:08;101001.81;;;20.25;46.42
45074;BME280;31570;51.688;5.860;2023-03-19T04:17:38;101000.69;;;20.28;46.56
45074;BME280;31570;51.688;5.860;2023-03-19T04:20:06;101003.78;;;20.42;46.23
45074;BME280;31570;51.688;5.860;2023-03-19T04:22:33;101004.09;;;20.39;46.27
45074;BME280;31570;51.688;5.860;2023-03-19T04:24:59;101002.59;;;20.45;46.08
45074;BME280;31570;51.688;5.860;2023-03-19T04:27:26;101000.19;;;20.42;46.11
45074;BME280;31570;51.688;5.860;2023-03-19T04:29:53;101001.75;;;20.44;46.07
45074;BME280;31570;51.688;5.860;2023-03-19T04:32:20;100996.19;;;20.46;46.00
45074;BME280;31570;51.688;5.860;2023-03-19T04:34:46;101003.91;;;20.51;45.76
45074;BME280;31570;51.688;5.860;2023-03-19T04:37:13;101005.31;;;20.55;45.68
45074;BME280;31570;51.688;5.860;2023-03-19T04:39:47;101011.59;;;20.55;45.94
45074;BME280;31570;51.688;5.860;2023-03-19T04:42:13;101013.63;;;20.53;45.91
45074;BME280;31570;51.688;5.860;2023-03-19T04:44:49;101021.91;;;20.52;45.88
45074;BME280;31570;51.688;5.860;2023-03-19T04:47:16;101024.31;;;20.55;45.99
45074;BME280;31570;51.688;5.860;2023-03-19T04:49:52;101009.91;;;20.54;45.77
45074;BME280;31570;51.688;5.860;2023-03-19T04:52:21;101012.78;;;20.53;45.85
45074;BME280;31570;51.688;5.860;2023-03-19T04:54:48;101013.16;;;20.58;45.68
45074;BME280;31570;51.688;5.860;2023-03-19T04:57:15;101013.88;;;20.60;45.57
45074;BME280;31570;51.688;5.860;2023-03-19T04:59:44;101014.31;;;20.55;45.85
45074;BME280;31570;51.688;5.860;2023-03-19T05:02:13;101015.50;;;20.53;45.86
45074;BME280;31570;51.688;5.860;2023-03-19T05:04:41;101018.47;;;20.59;45.79
45074;BME280;31570;51.688;5.860;2023-03-19T05:07:11;101021.78;;;20.53;45.91
45074;BME280;31570;51.688;5.860;2023-03-19T05:09:39;101019.91;;;20.54;45.92
45074;BME280;31570;51.688;5.860;2023-03-19T05:12:06;101020.22;;;20.51;45.98
45074;BME280;31570;51.688;5.860;2023-03-19T05:14:39;101018.59;;;20.58;45.69
45074;BME280;31570;51.688;5.860;2023-03-19T05:17:16;101027.75;;;20.57;45.78
45074;BME280;31570;51.688;5.860;2023-03-19T05:20:00;101030.47;;;20.57;45.64
45074;BME280;31570;51.688;5.860;2023-03-19T05:22:30;101029.03;;;20.62;45.68
45074;BME280;31570;51.688;5.860;2023-03-19T05:24:57;101032.72;;;20.61;45.54
45074;BME280;31570;51.688;5.860;2023-03-19T05:27:25;101037.03;;;20.64;45.80
45074;BME280;31570;51.688;5.860;2023-03-19T05:30:15;101033.19;;;20.57;45.76
45074;BME280;31570;51.688;5.860;2023-03-19T05:33:02;101031.88;;;20.61;45.60
45074;BME280;31570;51.688;5.860;2023-03-19T05:35:40;101038.47;;;20.58;45.60
45074;BME280;31570;51.688;5.860;2023-03-19T05:38:22;101047.16;;;20.62;45.52
45074;BME280;31570;51.688;5.860;2023-03-19T05:40:56;101035.31;;;20.63;45.53
45074;BME280;31570;51.688;5.860;2023-03-19T05:43:34;101042.28;;;20.65;45.63
45074;BME280;31570;51.688;5.860;2023-03-19T05:46:05;101050.44;;;20.65;45.54
45074;BME280;31570;51.688;5.860;2023-03-19T05:48:32;101050.03;;;20.60;45.62
45074;BME280;31570;51.688;5.860;2023-03-19T05:51:01;101050.78;;;20.53;45.60
45074;BME280;31570;51.688;5.860;2023-03-19T05:53:33;101063.06;;;20.57;45.67
45074;BME280;31570;51.688;5.860;2023-03-19T05:56:29;101054.63;;;20.60;45.65
45074;BME280;31570;51.688;5.860;2023-03-19T05:59:14;101062.06;;;20.48;45.95
45074;BME280;31570;51.688;5.860;2023-03-19T06:01:47;101063.19;;;20.55;45.66
45074;BME280;31570;51.688;5.860;2023-03-19T06:04:13;101064.63;;;20.59;45.67
45074;BME280;31570;51.688;5.860;2023-03-19T06:06:40;101060.91;;;20.60;45.57
45074;BME280;31570;51.688;5.860;2023-03-19T06:09:07;101069.34;;;20.57;45.77
45074;BME280;31570;51.688;5.860;2023-03-19T06:11:38;101070.34;;;20.66;45.59
45074;BME280;31570;51.688;5.860;2023-03-19T06:14:25;101083.75;;;20.67;45.48
45074;BME280;31570;51.688;5.860;2023-03-19T06:17:24;101082.47;;;20.62;45.49
45074;BME280;31570;51.688;5.860;2023-03-19T06:19:56;101072.31;;;20.64;45.42
45074;BME280;31570;51.688;5.860;2023-03-19T06:22:23;101074.03;;;20.65;45.30
45074;BME280;31570;51.688;5.860;2023-03-19T06:24:49;101081.78;;;20.60;45.45
45074;BME280;31570;51.688;5.860;2023-03-19T06:27:18;101085.34;;;20.60;45.53
45074;BME280;31570;51.688;5.860;2023-03-19T06:29:45;101082.75;;;20.59;45.68
45074;BME280;31570;51.688;5.860;2023-03-19T06:32:17;101101.66;;;20.60;45.52
45074;BME280;31570;51.688;5.860;2023-03-19T06:34:46;101096.34;;;20.59;45.58
45074;BME280;31570;51.688;5.860;2023-03-19T06:37:13;101096.50;;;20.57;45.61
45074;BME280;31570;51.688;5.860;2023-03-19T06:39:39;101098.66;;;20.54;45.63
45074;BME280;31570;51.688;5.860;2023-03-19T06:42:06;101105.22;;;20.61;45.54
45074;BME280;31570;51.688;5.860;2023-03-19T06:44:33;101095.38;;;20.60;45.68
45074;BME280;31570;51.688;5.860;2023-03-19T06:46:59;101105.22;;;20.61;45.62
45074;BME280;31570;51.688;5.860;2023-03-19T06:49:27;101103.50;;;20.60;45.67
45074;BME280;31570;51.688;5.860;2023-03-19T06:51:53;101104.50;;;20.59;45.58
45074;BME280;31570;51.688;5.860;2023-03-19T06:54:20;101107.19;;;20.59;45.74
45074;BME280;31570;51.688;5.860;2023-03-19T06:56:46;101109.69;;;20.42;45.83
45074;BME280;31570;51.688;5.860;2023-03-19T06:59:14;101110.25;;;20.36;46.07
45074;BME280;31570;51.688;5.860;2023-03-19T07:01:41;101118.50;;;20.44;46.08
45074;BME280;31570;51.688;5.860;2023-03-19T07:04:08;101121.22;;;20.44;45.96
45074;BME280;31570;51.688;5.860;2023-03-19T07:06:35;101122.69;;;20.29;46.16
45074;BME280;31570;51.688;5.860;2023-03-19T07:09:02;101130.84;;;20.39;46.00
45074;BME280;31570;51.688;5.860;2023-03-19T07:11:28;101133.28;;;20.32;46.14
45074;BME280;31570;51.688;5.860;2023-03-19T07:13:55;101133.56;;;20.19;46.44
45074;BME280;31570;51.688;5.860;2023-03-19T07:16:22;101139.84;;;20.20;46.72
45074;BME280;31570;51.688;5.860;2023-03-19T07:18:48;101142.00;;;20.26;46.28
45074;BME280;31570;51.688;5.860;2023-03-19T07:21:15;101133.84;;;20.36;46.31
45074;BME280;31570;51.688;5.860;2023-03-19T07:23:41;101141.41;;;20.32;46.26
45074;BME280;31570;51.688;5.860;2023-03-19T07:26:08;101144.41;;;20.39;46.09
45074;BME280;31570;51.688;5.860;2023-03-19T07:28:35;101150.25;;;20.44;46.13
45074;BME280;31570;51.688;5.860;2023-03-19T07:31:01;101150.81;;;20.47;45.87
45074;BME280;31570;51.688;5.860;2023-03-19T07:33:28;101149.66;;;20.50;45.73
45074;BME280;31570;51.688;5.860;2023-03-19T07:35:55;101152.78;;;20.45;46.04
45074;BME280;31570;51.688;5.860;2023-03-19T07:38:22;101155.97;;;20.51;46.03
45074;BME280;31570;51.688;5.860;2023-03-19T07:40:49;101152.25;;;20.52;46.02
45074;BME280;31570;51.688;5.860;2023-03-19T07:43:27;101153.25;;;20.51;46.22
45074;BME280;31570;51.688;5.860;2023-03-19T07:45:53;101159.97;;;20.46;46.17
45074;BME280;31570;51.688;5.860;2023-03-19T07:48:20;101160.81;;;20.37;46.17
45074;BME280;31570;51.688;5.860;2023-03-19T07:50:49;101166.13;;;20.39;46.10
45074;BME280;31570;51.688;5.860;2023-03-19T07:53:16;101164.25;;;20.39;46.35
45074;BME280;31570;51.688;5.860;2023-03-19T07:55:43;101157.69;;;20.32;46.31
45074;BME280;31570;51.688;5.860;2023-03-19T07:58:10;101162.69;;;20.27;46.42
45074;BME280;31570;51.688;5.860;2023-03-19T08:00:37;101166.13;;;20.29;46.46
45074;BME280;31570;51.688;5.860;2023-03-19T08:03:03;101163.69;;;20.26;46.54
45074;BME280;31570;51.688;5.860;2023-03-19T08:05:30;101161.00;;;20.26;46.78
45074;BME280;31570;51.688;5.860;2023-03-19T08:07:56;101164.56;;;20.27;46.54
45074;BME280;31570;51.688;5.860;2023-03-19T08:10:23;101165.97;;;20.21;46.80
45074;BME280;31570;51.688;5.860;2023-03-19T08:12:51;101168.28;;;20.25;46.67
45074;BME280;31570;51.688;5.860;2023-03-19T08:15:17;101171.13;;;20.24;46.82
45074;BME280;31570;51.688;5.860;2023-03-19T08:17:44;101175.25;;;20.28;46.60
45074;BME280;31570;51.688;5.860;2023-03-19T08:20:12;101177.00;;;20.29;46.63
45074;BME280;31570;51.688;5.860;2023-03-19T08:22:39;101173.25;;;20.30;46.54
45074;BME280;31570;51.688;5.860;2023-03-19T08:25:08;101180.56;;;20.30;46.65
45074;BME280;31570;51.688;5.860;2023-03-19T08:27:35;101189.25;;;20.33;46.77
45074;BME280;31570;51.688;5.860;2023-03-19T08:30:04;101188.53;;;20.41;46.45
45074;BME280;31570;51.688;5.860;2023-03-19T08:32:32;101183.69;;;20.35;46.49
45074;BME280;31570;51.688;5.860;2023-03-19T08:34:59;101188.25;;;20.34;46.59
45074;BME280;31570;51.688;5.860;2023-03-19T08:37:25;101182.13;;;20.32;46.64
45074;BME280;31570;51.688;5.860;2023-03-19T08:39:52;101190.28;;;20.32;46.71
45074;BME280;31570;51.688;5.860;2023-03-19T08:42:19;101194.97;;;20.30;46.77
45074;BME280;31570;51.688;5.860;2023-03-19T08:44:47;101192.69;;;20.35;46.54
45074;BME280;31570;51.688;5.860;2023-03-19T08:47:13;101201.69;;;20.36;46.51
45074;BME280;31570;51.688;5.860;2023-03-19T08:49:40;101193.97;;;20.41;46.46
45074;BME280;31570;51.688;5.860;2023-03-19T08:52:07;101199.41;;;20.41;46.59
45074;BME280;31570;51.688;5.860;2023-03-19T08:54:34;101202.84;;;20.43;46.54
45074;BME280;31570;51.688;5.860;2023-03-19T08:57:01;101213.13;;;20.49;46.44
45074;BME280;31570;51.688;5.860;2023-03-19T08:59:28;101214.25;;;20.46;46.42
45074;BME280;31570;51.688;5.860;2023-03-19T09:01:57;101220.00;;;20.53;46.34
45074;BME280;31570;51.688;5.860;2023-03-19T09:04:24;101213.84;;;20.51;46.23
45074;BME280;31570;51.688;5.860;2023-03-19T09:06:51;101209.13;;;20.43;46.31
45074;BME280;31570;51.688;5.860;2023-03-19T09:09:20;101217.41;;;20.42;46.54
45074;BME280;31570;51.688;5.860;2023-03-19T09:11:47;101217.84;;;20.47;46.39
45074;BME280;31570;51.688;5.860;2023-03-19T09:14:14;101215.13;;;20.47;46.45
45074;BME280;31570;51.688;5.860;2023-03-19T09:16:42;101219.69;;;20.46;46.55
45074;BME280;31570;51.688;5.860;2023-03-19T09:19:09;101220.84;;;20.44;46.55
45074;BME280;31570;51.688;5.860;2023-03-19T09:21:35;101227.28;;;20.43;46.56
45074;BME280;31570;51.688;5.860;2023-03-19T09:24:03;101224.84;;;20.40;46.85
45074;BME280;31570;51.688;5.860;2023-03-19T09:26:29;101225.13;;;20.46;46.74
45074;BME280;31570;51.688;5.860;2023-03-19T09:28:57;101224.59;;;20.53;46.24
45074;BME280;31570;51.688;5.860;2023-03-19T09:31:24;101228.84;;;20.55;46.49
45074;BME280;31570;51.688;5.860;2023-03-19T09:33:54;101236.44;;;20.61;46.29
45074;BME280;31570;51.688;5.860;2023-03-19T09:36:21;101231.72;;;20.63;46.11
45074;BME280;31570;51.688;5.860;2023-03-19T09:38:47;101237.56;;;20.68;46.02
45074;BME280;31570;51.688;5.860;2023-03-19T09:41:21;101240.72;;;20.74;45.78
45074;BME280;31570;51.688;5.860;2023-03-19T09:43:58;101249.72;;;20.74;45.88
45074;BME280;31570;51.688;5.860;2023-03-19T09:49:22;101247.16;;;20.63;46.29
45074;BME280;31570;51.688;5.860;2023-03-19T09:52:16;101251.00;;;20.70;45.76
45074;BME280;31570;51.688;5.860;2023-03-19T09:54:58;101253.84;;;20.68;46.19
45074;BME280;31570;51.688;5.860;2023-03-19T09:57:25;101253.28;;;20.65;46.15
45074;BME280;31570;51.688;5.860;2023-03-19T09:59:55;101257.75;;;20.66;46.28
45074;BME280;31570;51.688;5.860;2023-03-19T10:02:41;101263.00;;;20.67;46.21
45074;BME280;31570;51.688;5.860;2023-03-19T10:05:27;101266.28;;;20.71;46.07
45074;BME280;31570;51.688;5.860;2023-03-19T10:10:50;101271.44;;;20.64;46.16
45074;BME280;31570;51.688;5.860;2023-03-19T10:13:33;101268.59;;;20.66;46.05
45074;BME280;31570;51.688;5.860;2023-03-19T10:16:03;101264.88;;;20.67;46.07
45074;BME280;31570;51.688;5.860;2023-03-19T10:18:34;101259.72;;;20.64;46.20
45074;BME280;31570;51.688;5.860;2023-03-19T10:21:06;101261.72;;;20.62;46.37
45074;BME280;31570;51.688;5.860;2023-03-19T10:24:01;101268.44;;;20.67;46.26
45074;BME280;31570;51.688;5.860;2023-03-19T10:26:32;101277.16;;;20.61;46.46
45074;BME280;31570;51.688;5.860;2023-03-19T10:29:03;101277.16;;;20.61;46.22
45074;BME280;31570;51.688;5.860;2023-03-19T10:31:41;101276.31;;;20.51;46.43
45074;BME280;31570;51.688;5.860;2023-03-19T10:39:34;101272.59;;;20.62;46.41
45074;BME280;31570;51.688;5.860;2023-03-19T10:44:47;101271.88;;;20.69;46.32
45074;BME280;31570;51.688;5.860;2023-03-19T10:47:16;101278.00;;;20.71;46.40
45074;BME280;31570;51.688;5.860;2023-03-19T10:49:45;101275.47;;;20.70;45.94
45074;BME280;31570;51.688;5.860;2023-03-19T10:52:21;101278.88;;;20.72;45.96
45074;BME280;31570;51.688;5.860;2023-03-19T10:55:01;101278.31;;;20.68;46.16
45074;BME280;31570;51.688;5.860;2023-03-19T10:57:29;101281.31;;;20.65;46.35
45074;BME280;31570;51.688;5.860;2023-03-19T11:00:03;101284.00;;;20.75;46.09
45074;BME280;31570;51.688;5.860;2023-03-19T11:02:30;101287.47;;;20.77;46.11
45074;BME280;31570;51.688;5.860;2023-03-19T11:07:39;101289.88;;;20.70;46.19
45074;BME280;31570;51.688;5.860;2023-03-19T11:10:16;101281.47;;;20.74;46.19
45074;BME280;31570;51.688;5.860;2023-03-19T11:12:51;101286.31;;;20.80;45.98
45074;BME280;31570;51.688;5.860;2023-03-19T11:15:28;101291.47;;;20.73;46.01
45074;BME280;31570;51.688;5.860;2023-03-19T11:18:01;101296.91;;;20.83;46.02
45074;BME280;31570;51.688;5.860;2023-03-19T11:20:34;101294.03;;;20.84;45.94
45074;BME280;31570;51.688;5.860;2023-03-19T11:23:02;101293.63;;;20.79;45.95
45074;BME280;31570;51.688;5.860;2023-03-19T11:25:42;101287.16;;;20.80;46.07
45074;BME280;31570;51.688;5.860;2023-03-19T11:28:16;101292.72;;;20.79;46.19
45074;BME280;31570;51.688;5.860;2023-03-19T11:36:15;101295.16;;;20.91;45.85
45074;BME280;31570;51.688;5.860;2023-03-19T11:39:18;101297.88;;;20.72;46.05
45074;BME280;31570;51.688;5.860;2023-03-19T11:42:10;101296.91;;;20.63;46.37
45074;BME280;31570;51.688;5.860;2023-03-19T11:45:29;101291.75;;;20.70;46.15
45074;BME280;31570;51.688;5.860;2023-03-19T11:54:16;101294.88;;;20.65;46.48
45074;BME280;31570;51.688;5.860;2023-03-19T11:56:59;101297.47;;;20.67;46.32
45074;BME280;31570;51.688;5.860;2023-03-19T11:59:37;101304.03;;;20.74;46.39
45074;BME280;31570;51.688;5.860;2023-03-19T12:02:34;101302.63;;;20.70;46.36
45074;BME280;31570;51.688;5.860;2023-03-19T12:06:18;101303.75;;;20.77;46.21
45074;BME280;31570;51.688;5.860;2023-03-19T12:22:58;101289.47;;;20.56;46.74
45074;BME280;31570;51.688;5.860;2023-03-19T12:28:31;101285.47;;;20.60;46.55
45074;BME280;31570;51.688;5.860;2023-03-19T12:36:19;101295.31;;;20.61;46.71
45074;BME280;31570;51.688;5.860;2023-03-19T12:38:53;101289.88;;;20.61;46.58
45074;BME280;31570;51.688;5.860;2023-03-19T12:41:24;101293.88;;;20.47;46.88
45074;BME280;31570;51.688;5.860;2023-03-19T12:47:00;101286.91;;;20.64;46.67
45074;BME280;31570;51.688;5.860;2023-03-19T12:49:33;101303.47;;;20.61;46.79
45074;BME280;31570;51.688;5.860;2023-03-19T12:52:17;101290.00;;;20.69;46.55
45074;BME280;31570;51.688;5.860;2023-03-19T12:54:55;101284.88;;;20.76;46.41
45074;BME280;31570;51.688;5.860;2023-03-19T12:57:32;101290.31;;;20.76;46.32
45074;BME280;31570;51.688;5.860;2023-03-19T13:00:41;101288.31;;;20.78;46.33
45074;BME280;31570;51.688;5.860;2023-03-19T13:03:17;101294.88;;;20.75;46.47
45074;BME280;31570;51.688;5.860;2023-03-19T13:05:57;101293.00;;;20.76;46.38
45074;BME280;31570;51.688;5.860;2023-03-19T13:08:43;101299.47;;;20.75;46.33
45074;BME280;31570;51.688;5.860;2023-03-19T13:11:18;101299.47;;;20.65;46.58
45074;BME280;31570;51.688;5.860;2023-03-19T13:13:54;101307.91;;;20.71;46.68
45074;BME280;31570;51.688;5.860;2023-03-19T13:17:01;101301.78;;;20.69;46.55
45074;BME280;31570;51.688;5.860;2023-03-19T13:19:40;101307.47;;;20.66;46.72
45074;BME280;31570;51.688;5.860;2023-03-19T13:22:16;101307.19;;;20.69;46.70
45074;BME280;31570;51.688;5.860;2023-03-19T13:24:46;101312.91;;;20.76;46.46
45074;BME280;31570;51.688;5.860;2023-03-19T13:27:21;101309.19;;;20.77;46.48
45074;BME280;31570;51.688;5.860;2023-03-19T13:35:24;101309.59;;;20.82;46.33
45074;BME280;31570;51.688;5.860;2023-03-19T13:37:59;101315.75;;;20.84;46.47
45074;BME280;31570;51.688;5.860;2023-03-19T13:40:39;101308.44;;;20.94;46.19
45074;BME280;31570;51.688;5.860;2023-03-19T13:53:39;101315.47;;;20.87;46.23
45074;BME280;31570;51.688;5.860;2023-03-19T13:56:09;101316.03;;;20.91;46.42
45074;BME280;31570;51.688;5.860;2023-03-19T14:01:42;101325.19;;;20.90;46.24
45074;BME280;31570;51.688;5.860;2023-03-19T14:04:16;101326.06;;;20.90;46.38
45074;BME280;31570;51.688;5.860;2023-03-19T14:06:47;101321.91;;;20.86;46.61
45074;BME280;31570;51.688;5.860;2023-03-19T14:09:35;101326.34;;;20.87;46.45
45074;BME280;31570;51.688;5.860;2023-03-19T14:12:19;101332.78;;;20.96;46.33
45074;BME280;31570;51.688;5.860;2023-03-19T14:14:53;101334.63;;;20.95;46.18
45074;BME280;31570;51.688;5.860;2023-03-19T14:17:28;101327.31;;;21.06;46.13
45074;BME280;31570;51.688;5.860;2023-03-19T14:20:03;101339.19;;;21.05;46.32
45074;BME280;31570;51.688;5.860;2023-03-19T14:25:51;101328.19;;;21.06;46.22
45074;BME280;31570;51.688;5.860;2023-03-19T14:28:33;101330.03;;;21.06;46.20
45074;BME280;31570;51.688;5.860;2023-03-19T14:31:01;101326.31;;;21.07;46.26
45074;BME280;31570;51.688;5.860;2023-03-19T14:36:44;101312.75;;;21.07;46.40